createdAt,value
2022-11-30T00:01:38.816Z,102296.13
2022-11-30T00:04:08.975Z,102296.13
2022-11-30T00:06:41.381Z,102292.56
2022-11-30T00:09:09.795Z,102294.16
2022-11-30T00:11:38.261Z,102288.84
2022-11-30T00:14:06.610Z,102298.38
2022-11-30T00:16:34.942Z,102291.31
2022-11-30T00:19:03.390Z,102300.03
2022-11-30T00:21:31.908Z,102300.03
2022-11-30T00:24:00.361Z,102298.22
2022-11-30T00:26:29.738Z,102307.78
2022-11-30T00:28:58.220Z,102302.56
2022-11-30T00:31:26.685Z,102312.13
2022-11-30T00:33:55.322Z,102296.44
2022-11-30T00:36:24.125Z,102299.06
2022-11-30T00:38:52.676Z,102298.22
2022-11-30T00:41:23.722Z,102300.91
2022-11-30T00:43:52.214Z,102293.94
2022-11-30T00:46:20.640Z,102299.13
2022-11-30T00:48:49.165Z,102306.97
2022-11-30T00:51:18.632Z,102305.09
2022-11-30T00:53:49.931Z,102306.75
2022-11-30T00:56:18.319Z,102310.06
2022-11-30T00:58:46.737Z,102303.88
2022-11-30T01:01:15.176Z,102309.09
2022-11-30T01:03:43.524Z,102304.66
2022-11-30T01:06:11.832Z,102301.25
2022-11-30T01:08:40.195Z,102308.13
2022-11-30T01:11:31.927Z,102305.50
2022-11-30T01:14:00.914Z,102307.25
2022-11-30T01:16:32.339Z,102314.19
2022-11-30T01:19:00.912Z,102303.72
2022-11-30T01:21:29.915Z,102309.78
2022-11-30T01:23:58.457Z,102317.56
2022-11-30T01:26:26.876Z,102322.72
2022-11-30T01:28:56.287Z,102320.09
2022-11-30T01:31:25.066Z,102321.91
2022-11-30T01:33:55.837Z,102323.56
2022-11-30T01:36:28.274Z,102318.31
2022-11-30T01:38:59.703Z,102319.28
2022-11-30T01:41:32.844Z,102323.66
2022-11-30T01:44:07.199Z,102322.78
2022-11-30T01:47:07.815Z,102332.47
2022-11-30T01:49:48.641Z,102328.09
2022-11-30T01:52:19.965Z,102329.78
2022-11-30T01:54:56.375Z,102328.91
2022-11-30T01:57:35.714Z,102328.00
2022-11-30T02:00:08.006Z,102328.09
2022-11-30T02:02:55.765Z,102327.19
2022-11-30T02:05:25.966Z,102329.88
2022-11-30T02:07:55.155Z,102335.94
2022-11-30T02:10:28.732Z,102339.44
2022-11-30T02:13:13.799Z,102336.03
2022-11-30T02:16:06.678Z,102330.72
2022-11-30T02:18:54.440Z,102335.03
2022-11-30T02:21:30.209Z,102331.44
2022-11-30T02:24:37.067Z,102334.13
2022-11-30T02:27:13.305Z,102334.22
2022-11-30T02:29:47.201Z,102335.03
2022-11-30T02:32:22.926Z,102330.72
2022-11-30T02:34:53.244Z,102325.47
2022-11-30T02:37:23.203Z,102336.81
2022-11-30T02:39:51.583Z,102335.03
2022-11-30T02:42:19.907Z,102330.72
2022-11-30T02:44:51.313Z,102338.47
2022-11-30T02:47:26.476Z,102329.75
2022-11-30T02:50:22.851Z,102334.91
2022-11-30T02:52:52.189Z,102332.19
2022-11-30T02:55:20.773Z,102343.56
2022-11-30T02:57:49.190Z,102334.91
2022-11-30T03:00:18.029Z,102340.94
2022-11-30T03:02:46.851Z,102330.41
2022-11-30T03:05:15.405Z,102341.78
2022-11-30T03:07:43.892Z,102343.47
2022-11-30T03:10:12.443Z,102333.84
2022-11-30T03:12:40.871Z,102334.75
2022-11-30T03:15:10.553Z,102339.09
2022-11-30T03:17:39.017Z,102332.97
2022-11-30T03:20:08.605Z,102330.28
2022-11-30T03:22:36.932Z,102332.06
2022-11-30T03:25:05.700Z,102328.63
2022-11-30T03:27:34.198Z,102337.28
2022-11-30T03:30:03.368Z,102337.22
2022-11-30T03:32:31.709Z,102337.28
2022-11-30T03:35:00.032Z,102335.50
2022-11-30T03:37:28.456Z,102341.50
2022-11-30T03:39:58.490Z,102352.78
2022-11-30T03:42:26.958Z,102346.66
2022-11-30T03:44:55.338Z,102352.69
2022-11-30T03:47:24.820Z,102346.56
2022-11-30T03:49:53.532Z,102351.81
2022-11-30T03:52:23.120Z,102351.88
2022-11-30T03:54:51.562Z,102353.56
2022-11-30T03:57:19.977Z,102359.72
2022-11-30T03:59:49.099Z,102351.81
2022-11-30T04:02:17.417Z,102367.13
2022-11-30T04:04:46.089Z,102363.31
2022-11-30T04:07:14.754Z,102363.19
2022-11-30T04:09:43.244Z,102376.97
2022-11-30T04:12:11.773Z,102372.59
2022-11-30T04:14:41.037Z,102376.75
2022-11-30T04:17:09.676Z,102376.69
2022-11-30T04:19:38.039Z,102386.16
2022-11-30T04:22:06.459Z,102376.59
2022-11-30T04:24:35.771Z,102383.56
2022-11-30T04:27:04.036Z,102389.59
2022-11-30T04:29:32.634Z,102390.34
2022-11-30T04:32:01.115Z,102391.09
2022-11-30T04:34:29.532Z,102385.78
2022-11-30T04:37:00.495Z,102393.56
2022-11-30T04:39:29.146Z,102388.25
2022-11-30T04:41:57.486Z,102388.31
2022-11-30T04:44:25.888Z,102401.38
2022-11-30T04:46:54.301Z,102397.97
2022-11-30T04:49:22.813Z,102388.41
2022-11-30T04:51:51.476Z,102391.09
2022-11-30T04:54:19.772Z,102389.38
2022-11-30T04:56:48.546Z,102391.09
2022-11-30T04:59:16.910Z,102405.88
2022-11-30T05:01:45.260Z,102402.44
2022-11-30T05:04:13.717Z,102402.44
2022-11-30T05:06:42.206Z,102399.84
2022-11-30T05:09:10.832Z,102405.13
2022-11-30T05:11:39.367Z,102398.25
2022-11-30T05:14:07.800Z,102402.66
2022-11-30T05:16:36.150Z,102409.69
2022-11-30T05:19:04.537Z,102420.97
2022-11-30T05:21:32.966Z,102407.97
2022-11-30T05:24:02.536Z,102417.63
2022-11-30T05:26:30.854Z,102416.56
2022-11-30T05:28:59.417Z,102419.00
2022-11-30T05:31:28.065Z,102419.78
2022-11-30T05:33:57.426Z,102416.25
2022-11-30T05:36:25.787Z,102417.06
2022-11-30T05:38:54.134Z,102421.41
2022-11-30T05:41:22.550Z,102416.09
2022-11-30T05:43:51.102Z,102432.59
2022-11-30T05:46:19.810Z,102422.88
2022-11-30T05:48:49.164Z,102421.91
2022-11-30T05:51:22.248Z,102424.44
2022-11-30T05:53:55.998Z,102430.72
2022-11-30T05:56:25.026Z,102422.97
2022-11-30T05:58:53.579Z,102428.28
2022-11-30T06:01:26.835Z,102435.28
2022-11-30T06:03:56.485Z,102433.72
2022-11-30T06:06:24.844Z,102434.69
2022-11-30T06:08:54.260Z,102435.63
2022-11-30T06:11:24.593Z,102435.63
2022-11-30T06:13:53.041Z,102431.28
2022-11-30T06:16:21.875Z,102444.44
2022-11-30T06:18:50.281Z,102439.25
2022-11-30T06:21:24.119Z,102445.31
2022-11-30T06:23:54.162Z,102439.19
2022-11-30T06:26:22.639Z,102450.47
2022-11-30T06:28:50.942Z,102440.75
2022-11-30T06:31:19.383Z,102444.25
2022-11-30T06:33:47.969Z,102450.97
2022-11-30T06:36:22.319Z,102446.31
2022-11-30T06:38:51.553Z,102447.81
2022-11-30T06:41:21.507Z,102451.31
2022-11-30T06:43:49.861Z,102450.44
2022-11-30T06:46:19.293Z,102452.88
2022-11-30T06:48:50.954Z,102455.59
2022-11-30T06:51:20.273Z,102452.13
2022-11-30T06:53:49.065Z,102452.22
2022-11-30T06:56:17.474Z,102465.44
2022-11-30T06:58:45.922Z,102458.66
2022-11-30T07:01:15.346Z,102466.50
2022-11-30T07:03:44.041Z,102465.66
2022-11-30T07:06:14.678Z,102468.28
2022-11-30T07:08:43.829Z,102475.25
2022-11-30T07:11:13.282Z,102470.81
2022-11-30T07:13:41.961Z,102477.78
2022-11-30T07:16:12.026Z,102482.19
2022-11-30T07:18:40.685Z,102482.25
2022-11-30T07:21:10.949Z,102484.06
2022-11-30T07:23:58.588Z,102492.94
2022-11-30T07:26:35.694Z,102490.41
2022-11-30T07:29:05.330Z,102488.78
2022-11-30T07:31:35.949Z,102491.41
2022-11-30T07:34:09.486Z,102498.47
2022-11-30T07:36:37.876Z,102503.56
2022-11-30T07:39:06.410Z,102500.88
2022-11-30T07:41:35.792Z,102504.28
2022-11-30T07:44:05.814Z,102501.59
2022-11-30T07:46:36.611Z,102506.81
2022-11-30T07:49:06.063Z,102511.16
2022-11-30T07:51:35.551Z,102514.66
2022-11-30T07:54:04.209Z,102506.78
2022-11-30T07:56:32.580Z,102517.38
2022-11-30T07:59:02.291Z,102518.25
2022-11-30T08:01:32.518Z,102518.34
2022-11-30T08:04:01.205Z,102521.94
2022-11-30T08:06:31.845Z,102529.84
2022-11-30T08:09:04.552Z,102521.94
2022-11-30T08:11:36.016Z,102526.25
2022-11-30T08:14:04.725Z,102546.38
2022-11-30T08:16:38.139Z,102546.41
2022-11-30T08:19:06.725Z,102542.13
2022-11-30T08:21:35.147Z,102543.00
2022-11-30T08:24:03.847Z,102547.34
2022-11-30T08:26:35.844Z,102550.19
2022-11-30T08:29:04.252Z,102541.53
2022-11-30T08:31:35.642Z,102553.78
2022-11-30T08:34:06.832Z,102559.88
2022-11-30T08:36:35.585Z,102562.50
2022-11-30T08:39:05.706Z,102561.69
2022-11-30T08:41:35.576Z,102557.44
2022-11-30T08:44:04.207Z,102556.56
2022-11-30T08:46:51.413Z,102568.88
2022-11-30T08:49:23.469Z,102562.09
2022-11-30T08:54:48.896Z,102568.28
2022-11-30T08:57:20.186Z,102570.19
2022-11-30T08:59:49.870Z,102575.34
2022-11-30T09:02:19.849Z,102580.41
2022-11-30T09:05:09.368Z,102579.59
2022-11-30T09:07:37.402Z,102587.44
2022-11-30T09:10:06.399Z,102587.50
2022-11-30T09:12:37.440Z,102580.66
2022-11-30T09:15:07.776Z,102585.88
2022-11-30T09:17:37.405Z,102584.97
2022-11-30T09:20:07.775Z,102586.78
2022-11-30T09:22:36.048Z,102581.69
2022-11-30T09:25:04.983Z,102586.09
2022-11-30T09:27:35.987Z,102590.53
2022-11-30T09:30:04.885Z,102587.84
2022-11-30T09:32:36.253Z,102593.94
2022-11-30T09:35:08.596Z,102593.16
2022-11-30T09:37:40.292Z,102587.16
2022-11-30T09:40:09.343Z,102595.19
2022-11-30T09:43:06.119Z,102583.97
2022-11-30T09:45:36.466Z,102587.56
2022-11-30T09:48:23.674Z,102590.97
2022-11-30T09:50:54.973Z,102591.91
2022-11-30T09:53:45.937Z,102587.72
2022-11-30T09:56:26.767Z,102592.97
2022-11-30T09:59:15.682Z,102587.78
2022-11-30T10:01:46.183Z,102587.84
2022-11-30T10:04:27.710Z,102584.53
2022-11-30T10:07:37.211Z,102590.56
2022-11-30T10:10:32.768Z,102586.31
2022-11-30T10:13:24.219Z,102584.53
2022-11-30T10:16:04.302Z,102579.34
2022-11-30T10:19:20.517Z,102587.19
2022-11-30T10:22:08.210Z,102589.00
2022-11-30T10:25:14.489Z,102589.88
2022-11-30T10:28:38.520Z,102585.63
2022-11-30T10:31:00.029Z,102589.00
2022-11-30T10:33:38.715Z,102590.78
2022-11-30T10:36:13.318Z,102585.53
2022-11-30T10:39:02.358Z,102589.00
2022-11-30T10:41:52.621Z,102591.69
2022-11-30T10:44:40.174Z,102584.00
2022-11-30T10:47:22.836Z,102589.88
2022-11-30T10:49:54.658Z,102595.78
2022-11-30T10:52:30.082Z,102592.28
2022-11-30T10:55:04.223Z,102598.50
2022-11-30T10:57:33.646Z,102595.03
2022-11-30T11:00:05.724Z,102593.25
2022-11-30T11:02:36.268Z,102605.50
2022-11-30T11:05:30.993Z,102598.56
2022-11-30T11:08:07.097Z,102595.88
2022-11-30T11:10:45.252Z,102596.53
2022-11-30T11:13:19.323Z,102593.97
2022-11-30T11:16:00.867Z,102599.16
2022-11-30T11:18:34.606Z,102591.16
2022-11-30T11:21:06.111Z,102602.50
2022-11-30T11:23:40.573Z,102597.34
2022-11-30T11:26:25.945Z,102603.47
2022-11-30T11:29:02.466Z,102602.59
2022-11-30T11:31:50.775Z,102602.59
2022-11-30T11:34:47.975Z,102602.59
2022-11-30T11:37:28.812Z,102605.28
2022-11-30T11:40:17.854Z,102595.56
2022-11-30T11:42:54.344Z,102604.22
2022-11-30T11:45:24.125Z,102595.56
2022-11-30T11:48:00.796Z,102604.41
2022-11-30T11:51:05.157Z,102593.97
2022-11-30T11:53:23.094Z,102597.53
2022-11-30T11:56:00.972Z,102596.75
2022-11-30T11:58:49.331Z,102600.44
2022-11-30T12:01:57.442Z,102598.78
2022-11-30T12:04:27.570Z,102595.50
2022-11-30T12:06:59.031Z,102599.94
2022-11-30T12:09:39.631Z,102606.94
2022-11-30T12:12:13.419Z,102597.22
2022-11-30T12:14:41.852Z,102605.09
2022-11-30T12:17:32.111Z,102614.75
2022-11-30T12:20:16.755Z,102605.97
2022-11-30T12:23:35.777Z,102607.69
2022-11-30T12:26:26.252Z,102602.47
2022-11-30T12:28:54.626Z,102599.03
2022-11-30T12:31:41.825Z,102606.13
2022-11-30T12:34:24.162Z,102605.16
2022-11-30T12:37:08.780Z,102605.16
2022-11-30T12:39:40.103Z,102602.47
2022-11-30T12:42:21.235Z,102602.38
2022-11-30T12:45:17.159Z,102602.38
2022-11-30T12:48:08.970Z,102608.47
2022-11-30T12:50:50.556Z,102605.75
2022-11-30T12:53:27.818Z,102606.47
2022-11-30T12:56:14.547Z,102603.06
2022-11-30T12:59:01.092Z,102606.66
2022-11-30T13:01:32.347Z,102611.78
2022-11-30T13:04:44.044Z,102611.72
2022-11-30T13:07:41.916Z,102615.38
2022-11-30T13:10:39.083Z,102610.81
2022-11-30T13:13:16.233Z,102616.88
2022-11-30T13:15:46.514Z,102616.88
2022-11-30T13:18:20.393Z,102615.06
2022-11-30T13:21:06.354Z,102615.00
2022-11-30T13:23:47.905Z,102621.16
2022-11-30T13:26:55.635Z,102619.50
2022-11-30T13:29:42.635Z,102629.88
2022-11-30T13:32:48.618Z,102620.31
2022-11-30T13:35:29.726Z,102618.59
2022-11-30T13:38:35.056Z,102620.22
2022-11-30T13:40:58.830Z,102626.28
2022-11-30T13:43:30.762Z,102629.72
2022-11-30T13:46:23.818Z,102629.72
2022-11-30T13:49:37.439Z,102632.41
2022-11-30T13:52:24.436Z,102629.00
2022-11-30T13:54:58.383Z,102638.41
2022-11-30T13:57:27.994Z,102631.19
2022-11-30T13:59:58.383Z,102637.34
2022-11-30T14:02:41.804Z,102632.19
2022-11-30T14:05:16.593Z,102637.44
2022-11-30T14:08:10.052Z,102637.47
2022-11-30T14:10:44.491Z,102635.78
2022-11-30T14:13:16.052Z,102637.56
2022-11-30T14:15:44.881Z,102632.34
2022-11-30T14:18:22.456Z,102649.66
2022-11-30T14:21:17.601Z,102647.06
2022-11-30T14:23:53.933Z,102645.41
2022-11-30T14:26:29.094Z,102645.41
2022-11-30T14:42:59.221Z,102654.41
2022-11-30T14:45:33.110Z,102649.03
2022-11-30T14:48:06.868Z,102662.91
2022-11-30T14:50:36.192Z,102661.16
2022-11-30T14:53:35.648Z,102662.84
2022-11-30T14:56:22.745Z,102662.75
2022-11-30T14:58:57.654Z,102660.22
2022-11-30T15:01:32.556Z,102665.53
2022-11-30T15:04:10.231Z,102670.84
2022-11-30T15:06:40.253Z,102663.97
2022-11-30T15:09:22.701Z,102668.31
2022-11-30T15:11:52.806Z,102663.09
2022-11-30T15:14:21.900Z,102674.34
2022-11-30T15:16:57.828Z,102667.34
2022-11-30T15:19:31.784Z,102674.28
2022-11-30T15:22:03.254Z,102680.25
2022-11-30T15:24:31.992Z,102674.94
2022-11-30T15:27:15.156Z,102680.91
2022-11-30T15:29:49.061Z,102687.69
2022-11-30T15:32:23.090Z,102687.50
2022-11-30T15:34:57.695Z,102681.22
2022-11-30T15:37:35.854Z,102683.03
2022-11-30T15:40:07.781Z,102682.06
2022-11-30T15:42:43.671Z,102680.16
2022-11-30T15:45:33.342Z,102681.88
2022-11-30T15:48:05.595Z,102687.00
2022-11-30T15:50:37.707Z,102685.22
2022-11-30T15:53:30.166Z,102679.25
2022-11-30T15:56:09.410Z,102688.09
2022-11-30T15:59:01.355Z,102688.09
2022-11-30T16:01:32.207Z,102687.19
2022-11-30T16:04:06.088Z,102682.75
2022-11-30T16:06:46.016Z,102689.81
2022-11-30T16:09:32.381Z,102694.06
2022-11-30T16:12:02.537Z,102693.16
2022-11-30T16:14:31.743Z,102697.41
2022-11-30T16:17:05.490Z,102688.75
2022-11-30T16:19:37.117Z,102687.84
2022-11-30T16:22:05.418Z,102698.44
2022-11-30T16:24:33.842Z,102702.66
2022-11-30T16:27:20.811Z,102700.03
2022-11-30T16:29:52.607Z,102704.34
2022-11-30T16:32:21.636Z,102701.72
2022-11-30T16:34:50.005Z,102699.94
2022-11-30T16:37:18.521Z,102704.34
2022-11-30T16:39:47.204Z,102705.25
2022-11-30T16:42:15.879Z,102714.88
2022-11-30T16:44:44.681Z,102717.50
2022-11-30T16:47:13.032Z,102718.34
2022-11-30T16:49:41.429Z,102724.34
2022-11-30T16:52:16.227Z,102726.88
2022-11-30T16:54:44.594Z,102726.00
2022-11-30T16:57:14.016Z,102725.09
2022-11-30T16:59:42.496Z,102727.78
2022-11-30T17:02:20.144Z,102733.94
2022-11-30T17:04:49.765Z,102731.22
2022-11-30T17:07:18.280Z,102738.41
2022-11-30T17:09:46.785Z,102735.88
2022-11-30T17:12:18.315Z,102733.19
2022-11-30T17:14:46.971Z,102736.53
2022-11-30T17:17:16.199Z,102737.53
2022-11-30T17:19:44.587Z,102740.94
2022-11-30T17:22:13.106Z,102739.25
2022-11-30T17:24:41.518Z,102744.53
2022-11-30T17:27:11.996Z,102747.16
2022-11-30T17:29:43.092Z,102755.81
2022-11-30T17:32:11.427Z,102754.94
2022-11-30T17:34:39.928Z,102759.16
2022-11-30T17:37:08.746Z,102750.50
2022-11-30T17:39:37.038Z,102755.72
2022-11-30T17:42:05.634Z,102755.72
2022-11-30T17:44:35.136Z,102751.31
2022-11-30T17:47:03.425Z,102750.41
2022-11-30T17:49:33.030Z,102753.91
2022-11-30T17:52:02.264Z,102757.44
2022-11-30T17:54:30.886Z,102767.91
2022-11-30T17:56:59.989Z,102758.25
2022-11-30T17:59:28.448Z,102767.81
2022-11-30T18:01:57.625Z,102773.03
2022-11-30T18:04:26.060Z,102768.63
2022-11-30T18:06:54.532Z,102766.19
2022-11-30T18:09:24.523Z,102768.00
2022-11-30T18:11:52.834Z,102776.75
2022-11-30T18:14:21.345Z,102782.06
2022-11-30T18:16:49.785Z,102782.84
2022-11-30T18:19:18.389Z,102771.59
2022-11-30T18:21:47.629Z,102770.69
2022-11-30T18:24:17.276Z,102775.00
2022-11-30T18:26:49.758Z,102781.13
2022-11-30T18:29:18.122Z,102780.25
2022-11-30T18:31:48.776Z,102788.09
2022-11-30T18:34:17.430Z,102784.56
2022-11-30T18:36:46.163Z,102787.28
2022-11-30T18:39:14.415Z,102783.03
2022-11-30T18:41:42.775Z,102784.72
2022-11-30T18:44:11.409Z,102779.50
2022-11-30T18:46:39.914Z,102794.28
2022-11-30T18:49:08.458Z,102798.63
2022-11-30T18:51:36.970Z,102795.13
2022-11-30T18:54:08.068Z,102794.28
2022-11-30T18:56:38.973Z,102796.03
2022-11-30T18:59:12.307Z,102807.38
2022-11-30T19:01:41.304Z,102803.84
2022-11-30T19:04:11.512Z,102811.63
2022-11-30T19:06:41.620Z,102814.13
2022-11-30T19:09:14.766Z,102811.63
2022-11-30T19:11:43.615Z,102811.53
2022-11-30T19:14:14.158Z,102807.03
2022-11-30T19:16:43.249Z,102806.94
2022-11-30T19:19:14.199Z,102806.94
2022-11-30T19:21:44.809Z,102804.41
2022-11-30T19:24:14.461Z,102807.84
2022-11-30T19:26:42.962Z,102820.09
2022-11-30T19:29:12.139Z,102818.28
2022-11-30T19:31:41.210Z,102813.97
2022-11-30T19:34:12.892Z,102819.28
2022-11-30T19:36:43.635Z,102815.75
2022-11-30T19:39:12.221Z,102821.97
2022-11-30T19:41:40.587Z,102817.72
2022-11-30T19:44:12.930Z,102816.09
2022-11-30T19:46:41.870Z,102818.91
2022-11-30T19:49:11.038Z,102817.19
2022-11-30T19:51:39.477Z,102817.34
2022-11-30T19:54:07.895Z,102819.09
2022-11-30T19:56:37.347Z,102825.28
2022-11-30T19:59:06.274Z,102817.34
2022-11-30T20:01:36.224Z,102823.34
2022-11-30T20:04:04.896Z,102822.41
2022-11-30T20:06:36.217Z,102825.75
2022-11-30T20:09:06.946Z,102826.56
2022-11-30T20:11:36.897Z,102823.94
2022-11-30T20:14:05.274Z,102822.16
2022-11-30T20:16:33.722Z,102828.19
2022-11-30T20:19:03.066Z,102835.03
2022-11-30T20:21:33.894Z,102833.25
2022-11-30T20:24:06.207Z,102828.84
2022-11-30T20:26:38.318Z,102837.50
2022-11-30T20:29:11.136Z,102837.50
2022-11-30T20:31:40.293Z,102841.03
2022-11-30T20:34:10.525Z,102849.75
2022-11-30T20:36:39.099Z,102844.44
2022-11-30T20:39:07.772Z,102846.25
2022-11-30T20:41:36.218Z,102848.84
2022-11-30T20:44:05.995Z,102848.84
2022-11-30T20:46:35.855Z,102853.25
2022-11-30T20:49:13.660Z,102849.75
2022-11-30T20:51:42.099Z,102847.13
2022-11-30T20:54:12.162Z,102852.47
2022-11-30T20:56:40.873Z,102843.53
2022-11-30T20:59:14.730Z,102845.16
2022-11-30T21:01:45.379Z,102848.75
2022-11-30T21:04:17.014Z,102847.88
2022-11-30T21:06:49.149Z,102853.91
2022-11-30T21:09:20.837Z,102855.63
2022-11-30T21:11:49.502Z,102856.50
2022-11-30T21:14:18.189Z,102855.72
2022-11-30T21:16:46.464Z,102851.47
2022-11-30T21:19:17.603Z,102853.34
2022-11-30T21:21:46.461Z,102848.94
2022-11-30T21:24:15.425Z,102856.06
2022-11-30T21:26:43.977Z,102850.03
2022-11-30T21:29:15.431Z,102850.03
2022-11-30T21:31:45.112Z,102859.56
2022-11-30T21:34:14.084Z,102846.44
2022-11-30T21:36:43.046Z,102854.34
2022-11-30T21:39:15.360Z,102851.81
2022-11-30T21:41:44.283Z,102846.69
2022-11-30T21:44:14.560Z,102849.38
2022-11-30T21:46:45.858Z,102847.66
2022-11-30T21:49:15.574Z,102849.47
2022-11-30T21:51:44.202Z,102853.88
2022-11-30T21:54:13.638Z,102850.38
2022-11-30T21:56:44.762Z,102858.31
2022-11-30T21:59:14.755Z,102855.59
2022-11-30T22:01:44.988Z,102855.59
2022-11-30T22:04:14.548Z,102853.88
2022-11-30T22:06:43.631Z,102863.34
2022-11-30T22:09:15.354Z,102858.94
2022-11-30T22:11:45.703Z,102865.06
2022-11-30T22:14:16.321Z,102868.56
2022-11-30T22:16:45.440Z,102869.47
2022-11-30T22:19:14.449Z,102863.44
2022-11-30T22:21:49.460Z,102865.22
2022-11-30T22:24:19.074Z,102866.84
2022-11-30T22:26:49.237Z,102872.91
2022-11-30T22:29:22.963Z,102872.03
2022-11-30T22:31:54.130Z,102876.41
2022-11-30T22:34:23.416Z,102873.81
2022-11-30T22:36:51.886Z,102878.94
2022-11-30T22:39:22.126Z,102870.31
2022-11-30T22:41:55.734Z,102877.25
2022-11-30T22:44:26.571Z,102877.25
2022-11-30T22:46:55.716Z,102879.03
2022-11-30T22:49:24.599Z,102884.25
2022-11-30T22:51:53.442Z,102879.88
2022-11-30T22:54:22.295Z,102885.91
2022-11-30T22:56:51.080Z,102882.47
2022-11-30T22:59:19.431Z,102881.56
2022-11-30T23:01:50.678Z,102879.69
2022-11-30T23:04:23.302Z,102878.69
2022-11-30T23:06:54.780Z,102884.63
2022-11-30T23:09:24.295Z,102877.44
2022-11-30T23:11:52.825Z,102872.03
2022-11-30T23:14:21.392Z,102874.75
2022-11-30T23:16:49.840Z,102875.56
2022-11-30T23:19:18.632Z,102872.13
2022-11-30T23:21:50.154Z,102871.13
2022-11-30T23:24:21.039Z,102874.75
2022-11-30T23:26:49.824Z,102870.22
2022-11-30T23:29:19.080Z,102868.44
2022-11-30T23:31:54.334Z,102871.94
2022-11-30T23:34:22.801Z,102875.47
2022-11-30T23:36:51.679Z,102876.34
2022-11-30T23:39:23.120Z,102879.06
2022-11-30T23:41:51.554Z,102879.06
2022-11-30T23:44:23.622Z,102884.28
2022-11-30T23:47:00.656Z,102884.19
2022-11-30T23:49:29.439Z,102883.31
2022-11-30T23:51:58.902Z,102885.13
2022-11-30T23:54:27.646Z,102888.63
2022-11-30T23:56:56.928Z,102886.91
2022-11-30T23:59:25.266Z,102883.59
